createdAt,value
2023-04-04T00:02:21.706Z,3.03
2023-04-04T00:04:48.268Z,2.23
2023-04-04T00:07:15.013Z,2.60
2023-04-04T00:09:41.448Z,2.13
2023-04-04T00:12:07.961Z,3.23
2023-04-04T00:14:34.646Z,2.93
2023-04-04T00:17:01.066Z,3.07
2023-04-04T00:19:27.646Z,2.53
2023-04-04T00:21:55.000Z,2.80
2023-04-04T00:24:21.862Z,2.60
2023-04-04T00:26:48.384Z,3.30
2023-04-04T00:29:15.010Z,3.50
2023-04-04T00:31:41.615Z,2.60
2023-04-04T00:34:08.533Z,3.03
2023-04-04T00:36:35.160Z,2.87
2023-04-04T00:39:02.246Z,3.13
2023-04-04T00:41:28.874Z,3.50
2023-04-04T00:43:56.559Z,3.23
2023-04-04T00:46:25.034Z,3.00
2023-04-04T00:48:52.114Z,3.00
2023-04-04T00:51:18.542Z,2.80
2023-04-04T00:53:46.666Z,2.60
2023-04-04T00:56:13.872Z,2.80
2023-04-04T00:58:43.495Z,2.77
2023-04-04T01:01:13.791Z,3.40
2023-04-04T01:03:40.745Z,3.03
2023-04-04T01:06:08.502Z,2.80
2023-04-04T01:08:38.334Z,2.77
2023-04-04T01:11:06.114Z,3.30
2023-04-04T01:13:33.810Z,3.50
2023-04-04T01:16:01.614Z,2.70
2023-04-04T01:18:29.203Z,3.67
2023-04-04T01:21:06.050Z,2.60
2023-04-04T01:23:43.728Z,2.50
2023-04-04T01:26:11.720Z,3.53
2023-04-04T01:28:38.467Z,3.17
2023-04-04T01:31:14.133Z,2.87
2023-04-04T01:33:51.541Z,2.70
2023-04-04T01:36:40.999Z,2.50
2023-04-04T01:39:23.288Z,4.00
2023-04-04T01:41:51.214Z,3.40
2023-04-04T01:44:19.277Z,2.50
2023-04-04T01:46:46.508Z,2.83
2023-04-04T01:49:12.968Z,3.87
2023-04-04T01:51:40.457Z,2.80
2023-04-04T01:54:08.181Z,2.50
2023-04-04T01:56:34.942Z,3.00
2023-04-04T01:59:01.571Z,2.50
2023-04-04T02:01:28.379Z,3.10
2023-04-04T02:03:55.288Z,3.30
2023-04-04T02:06:22.513Z,2.70
2023-04-04T02:08:49.231Z,3.37
2023-04-04T02:11:15.796Z,2.23
2023-04-04T02:13:44.339Z,2.80
2023-04-04T02:16:13.533Z,2.73
2023-04-04T02:18:40.484Z,2.80
2023-04-04T02:21:07.692Z,3.20
2023-04-04T02:23:34.373Z,2.80
2023-04-04T02:26:00.905Z,3.17
2023-04-04T02:28:28.746Z,2.90
2023-04-04T02:30:55.304Z,2.50
2023-04-04T02:33:22.304Z,2.90
2023-04-04T02:35:49.885Z,2.80
2023-04-04T02:38:16.441Z,2.67
2023-04-04T02:40:46.192Z,3.53
2023-04-04T02:43:12.856Z,2.70
2023-04-04T02:45:39.957Z,2.63
2023-04-04T02:48:25.994Z,2.83
2023-04-04T02:50:55.767Z,3.60
2023-04-04T02:53:22.491Z,2.80
2023-04-04T02:55:51.619Z,3.10
2023-04-04T02:58:18.268Z,2.87
2023-04-04T03:00:47.089Z,2.63
2023-04-04T03:03:13.906Z,3.33
2023-04-04T03:05:44.383Z,2.50
2023-04-04T03:08:11.000Z,2.50
2023-04-04T03:10:37.428Z,2.90
2023-04-04T03:13:04.228Z,2.40
2023-04-04T03:15:33.204Z,2.67
2023-04-04T03:18:00.041Z,3.00
2023-04-04T03:20:28.169Z,3.00
2023-04-04T03:22:54.883Z,3.30
2023-04-04T03:25:21.653Z,2.73
2023-04-04T03:27:48.168Z,2.80
2023-04-04T03:30:21.122Z,2.70
2023-04-04T03:32:47.864Z,3.10
2023-04-04T03:35:14.547Z,3.10
2023-04-04T03:37:42.763Z,3.30
2023-04-04T03:40:09.547Z,3.27
2023-04-04T03:42:36.158Z,3.60
2023-04-04T03:45:08.389Z,3.50
2023-04-04T03:47:36.506Z,2.93
2023-04-04T03:50:03.059Z,3.10
2023-04-04T03:52:31.880Z,3.00
2023-04-04T03:54:58.257Z,2.90
2023-04-04T03:57:27.113Z,3.43
2023-04-04T03:59:53.847Z,2.97
2023-04-04T04:02:22.152Z,3.37
2023-04-04T04:04:48.620Z,3.30
2023-04-04T04:07:15.387Z,3.50
2023-04-04T04:09:42.115Z,3.00
2023-04-04T04:12:08.718Z,3.17
2023-04-04T04:14:35.281Z,3.40
2023-04-04T04:17:02.565Z,3.10
2023-04-04T04:19:29.355Z,3.17
2023-04-04T04:21:56.604Z,4.00
2023-04-04T04:24:23.201Z,3.30
2023-04-04T04:26:49.656Z,2.93
2023-04-04T04:29:16.738Z,3.37
2023-04-04T04:31:43.366Z,3.40
2023-04-04T04:34:10.481Z,3.17
2023-04-04T04:36:38.972Z,3.50
2023-04-04T04:39:17.254Z,3.73
2023-04-04T04:41:56.997Z,3.80
2023-04-04T04:44:24.692Z,3.30
2023-04-04T04:46:54.461Z,3.33
2023-04-04T04:49:21.025Z,3.20
2023-04-04T04:51:49.131Z,3.30
2023-04-04T04:54:16.954Z,3.73
2023-04-04T04:56:44.689Z,3.83
2023-04-04T04:59:12.908Z,3.43
2023-04-04T05:01:42.792Z,3.73
2023-04-04T05:04:09.553Z,3.47
2023-04-04T05:06:42.390Z,3.00
2023-04-04T05:09:11.135Z,3.67
2023-04-04T05:11:38.354Z,3.30
2023-04-04T05:14:07.111Z,3.47
2023-04-04T05:16:44.030Z,3.37
2023-04-04T05:19:10.648Z,3.20
2023-04-04T05:21:43.462Z,4.50
2023-04-04T05:24:17.180Z,3.60
2023-04-04T05:26:43.634Z,3.60
2023-04-04T05:29:10.345Z,3.63
2023-04-04T05:31:41.397Z,3.60
2023-04-04T05:34:15.508Z,3.23
2023-04-04T05:36:42.439Z,4.57
2023-04-04T05:39:09.811Z,3.50
2023-04-04T05:41:43.455Z,3.20
2023-04-04T05:44:14.910Z,3.70
2023-04-04T05:46:42.402Z,3.37
2023-04-04T05:49:10.314Z,3.67
2023-04-04T05:51:41.011Z,3.80
2023-04-04T05:54:11.080Z,3.27
2023-04-04T05:56:38.757Z,4.40
2023-04-04T05:59:11.208Z,4.20
2023-04-04T06:01:49.581Z,3.93
2023-04-04T06:04:16.582Z,3.77
2023-04-04T06:06:44.366Z,3.67
2023-04-04T06:09:10.872Z,4.80
2023-04-04T06:11:37.362Z,4.03
2023-04-04T06:14:08.220Z,4.53
2023-04-04T06:16:35.982Z,4.07
2023-04-04T06:19:02.815Z,4.00
2023-04-04T06:21:29.878Z,3.80
2023-04-04T06:23:56.945Z,4.40
2023-04-04T06:26:23.536Z,4.73
2023-04-04T06:28:51.459Z,4.37
2023-04-04T06:31:23.091Z,4.43
2023-04-04T06:33:51.428Z,4.43
2023-04-04T06:36:21.413Z,4.10
2023-04-04T06:38:47.910Z,3.97
2023-04-04T06:41:17.476Z,4.57
2023-04-04T06:43:46.724Z,4.13
2023-04-04T06:46:13.209Z,4.80
2023-04-04T06:48:39.697Z,4.07
2023-04-04T06:51:07.478Z,3.97
2023-04-04T06:53:35.189Z,3.50
2023-04-04T06:56:01.711Z,2.53
2023-04-04T06:58:28.406Z,2.93
2023-04-04T07:00:56.629Z,2.67
2023-04-04T07:03:24.325Z,2.20
2023-04-04T07:05:50.910Z,2.50
2023-04-04T07:08:17.334Z,1.90
2023-04-04T07:10:44.012Z,2.27
2023-04-04T07:13:11.204Z,2.10
2023-04-04T07:15:37.631Z,1.90
2023-04-04T07:18:04.147Z,2.60
2023-04-04T07:20:30.605Z,2.30
2023-04-04T07:22:57.176Z,2.43
2023-04-04T07:25:23.598Z,2.10
2023-04-04T07:27:53.074Z,2.80
2023-04-04T07:30:26.292Z,2.70
2023-04-04T07:33:00.193Z,1.87
2023-04-04T07:35:27.249Z,2.00
2023-04-04T07:37:54.103Z,2.47
2023-04-04T07:40:21.566Z,1.80
2023-04-04T07:42:51.744Z,2.53
2023-04-04T07:45:18.524Z,2.53
2023-04-04T07:47:46.073Z,2.40
2023-04-04T07:50:13.681Z,2.53
2023-04-04T07:52:41.131Z,2.37
2023-04-04T07:55:08.562Z,2.47
2023-04-04T07:57:39.477Z,2.40
2023-04-04T08:00:12.067Z,2.07
2023-04-04T08:02:43.913Z,2.20
2023-04-04T08:05:10.662Z,2.20
2023-04-04T08:07:37.178Z,1.90
2023-04-04T08:10:03.846Z,1.90
2023-04-04T08:12:30.434Z,2.10
2023-04-04T08:14:56.893Z,2.00
2023-04-04T08:17:23.511Z,2.07
2023-04-04T08:19:50.014Z,2.07
2023-04-04T08:22:16.770Z,1.77
2023-04-04T08:24:43.235Z,1.60
2023-04-04T08:27:09.745Z,1.80
2023-04-04T08:29:36.203Z,1.63
2023-04-04T08:32:02.997Z,2.03
2023-04-04T08:34:29.555Z,1.97
2023-04-04T08:36:56.502Z,1.97
2023-04-04T08:39:22.931Z,1.70
2023-04-04T08:41:57.546Z,1.57
2023-04-04T08:44:26.090Z,1.67
2023-04-04T08:46:54.219Z,1.80
2023-04-04T08:49:23.855Z,1.90
2023-04-04T08:51:52.375Z,2.97
2023-04-04T08:54:20.829Z,1.50
2023-04-04T08:56:47.410Z,1.70
2023-04-04T08:59:15.691Z,1.77
2023-04-04T09:01:42.541Z,2.20
2023-04-04T09:04:09.388Z,1.97
2023-04-04T09:06:36.848Z,1.90
2023-04-04T09:09:04.074Z,1.70
2023-04-04T09:11:31.688Z,1.83
2023-04-04T09:13:58.793Z,2.07
2023-04-04T09:16:26.458Z,1.60
2023-04-04T09:18:52.882Z,1.97
2023-04-04T09:21:20.442Z,1.50
2023-04-04T09:23:46.891Z,1.73
2023-04-04T09:26:13.552Z,1.47
2023-04-04T09:28:40.030Z,1.90
2023-04-04T09:31:08.340Z,1.93
2023-04-04T09:33:34.887Z,1.70
2023-04-04T09:36:12.536Z,1.23
2023-04-04T09:38:45.449Z,2.37
2023-04-04T09:41:15.334Z,2.03
2023-04-04T09:43:44.816Z,2.17
2023-04-04T09:46:11.563Z,1.80
2023-04-04T09:48:38.050Z,1.93
2023-04-04T09:51:07.368Z,1.70
2023-04-04T09:53:35.975Z,1.80
2023-04-04T09:56:02.965Z,1.53
2023-04-04T09:58:32.009Z,1.83
2023-04-04T10:01:00.821Z,2.23
2023-04-04T10:03:30.095Z,2.00
2023-04-04T10:05:57.784Z,1.87
2023-04-04T10:08:24.466Z,1.90
2023-04-04T10:11:06.550Z,1.70
2023-04-04T10:13:40.705Z,1.63
2023-04-04T10:16:08.608Z,2.43
2023-04-04T10:18:36.468Z,2.00
2023-04-04T10:23:38.443Z,2.00
2023-04-04T10:26:05.026Z,2.30
2023-04-04T10:28:32.570Z,1.70
2023-04-04T10:31:23.757Z,1.70
2023-04-04T10:34:09.200Z,1.80
2023-04-04T10:36:44.454Z,1.67
2023-04-04T10:39:32.510Z,1.90
2023-04-04T10:41:59.877Z,1.73
2023-04-04T10:44:34.149Z,1.80
2023-04-04T10:47:22.081Z,1.60
2023-04-04T10:49:51.086Z,2.07
2023-04-04T10:52:19.844Z,2.17
2023-04-04T10:54:48.274Z,1.63
2023-04-04T10:57:15.469Z,2.37
2023-04-04T11:00:01.939Z,2.63
2023-04-04T11:02:44.842Z,2.67
2023-04-04T11:05:17.310Z,1.87
2023-04-04T11:07:57.218Z,2.30
2023-04-04T11:10:36.114Z,2.00
2023-04-04T11:13:13.382Z,2.30
2023-04-04T11:16:15.345Z,2.27
2023-04-04T11:18:42.016Z,3.07
2023-04-04T11:21:14.158Z,2.20
2023-04-04T11:23:49.502Z,1.97
2023-04-04T11:26:35.083Z,2.30
2023-04-04T11:29:09.658Z,2.40
2023-04-04T11:31:43.140Z,2.27
2023-04-04T11:34:30.167Z,2.37
2023-04-04T11:36:57.871Z,2.70
2023-04-04T11:39:29.499Z,2.23
2023-04-04T11:42:13.591Z,2.60
2023-04-04T11:44:49.308Z,2.70
2023-04-04T11:47:19.480Z,1.90
2023-04-04T11:49:47.014Z,2.53
2023-04-04T11:52:16.357Z,2.20
2023-04-04T11:54:45.045Z,2.37
2023-04-04T11:57:12.532Z,2.20
2023-04-04T11:59:40.783Z,2.20
2023-04-04T12:02:09.287Z,2.23
2023-04-04T12:04:38.216Z,2.23
2023-04-04T12:07:07.790Z,2.40
2023-04-04T12:09:34.626Z,2.10
2023-04-04T12:12:01.743Z,2.43
2023-04-04T12:14:28.322Z,2.30
2023-04-04T12:16:57.404Z,2.23
2023-04-04T12:19:24.618Z,1.73
2023-04-04T12:21:52.391Z,1.60
2023-04-04T12:24:19.796Z,2.10
2023-04-04T12:26:48.635Z,1.50
2023-04-04T12:29:17.457Z,1.80
2023-04-04T12:31:46.316Z,2.20
2023-04-04T12:34:24.201Z,2.00
2023-04-04T12:36:55.446Z,1.90
2023-04-04T12:39:25.337Z,2.07
2023-04-04T12:42:00.007Z,2.30
2023-04-04T12:44:27.756Z,2.33
2023-04-04T12:46:59.920Z,1.80
2023-04-04T12:49:31.444Z,2.00
2023-04-04T12:52:04.746Z,1.67
2023-04-04T12:54:32.900Z,1.90
2023-04-04T12:57:04.079Z,1.97
2023-04-04T12:59:32.371Z,2.20
2023-04-04T13:02:02.111Z,1.87
2023-04-04T13:04:29.135Z,2.20
2023-04-04T13:06:55.663Z,2.40
2023-04-04T13:09:23.585Z,1.80
2023-04-04T13:12:03.636Z,2.30
2023-04-04T13:14:57.771Z,1.93
2023-04-04T13:17:24.361Z,1.83
2023-04-04T13:19:51.697Z,3.03
2023-04-04T13:22:18.257Z,2.27
2023-04-04T13:24:44.828Z,1.57
2023-04-04T13:27:11.227Z,1.90
2023-04-04T13:29:37.755Z,2.00
2023-04-04T13:32:04.818Z,3.23
2023-04-04T13:34:31.649Z,2.03
2023-04-04T13:36:58.113Z,1.90
2023-04-04T13:39:25.065Z,2.17
2023-04-04T13:41:51.503Z,1.70
2023-04-04T13:44:18.061Z,2.40
2023-04-04T13:46:44.478Z,2.27
2023-04-04T13:49:11.081Z,2.30
2023-04-04T13:51:37.929Z,1.90
2023-04-04T13:54:04.636Z,2.07
2023-04-04T13:56:31.084Z,1.90
2023-04-04T13:58:57.595Z,2.20
2023-04-04T14:01:24.145Z,2.50
2023-04-04T14:03:51.044Z,2.17
2023-04-04T14:06:17.530Z,2.60
2023-04-04T14:08:44.653Z,2.50
2023-04-04T14:11:11.127Z,2.10
2023-04-04T14:13:37.639Z,2.77
2023-04-04T14:16:04.756Z,2.57
2023-04-04T14:18:31.325Z,2.60
2023-04-04T14:20:57.953Z,2.20
2023-04-04T14:23:24.431Z,2.27
2023-04-04T14:25:51.061Z,2.37
2023-04-04T14:28:17.575Z,2.13
2023-04-04T14:30:43.969Z,2.10
2023-04-04T14:33:11.115Z,2.07
2023-04-04T14:35:37.791Z,2.67
2023-04-04T14:38:04.235Z,2.43
2023-04-04T14:40:30.888Z,2.33
2023-04-04T14:42:57.462Z,2.23
2023-04-04T14:45:24.129Z,2.20
2023-04-04T14:47:50.653Z,2.50
2023-04-04T14:50:17.386Z,2.93
2023-04-04T14:52:43.857Z,2.10
2023-04-04T14:55:10.434Z,2.53
2023-04-04T14:57:51.894Z,2.07
2023-04-04T15:00:24.084Z,2.50
2023-04-04T15:02:51.270Z,2.00
2023-04-04T15:05:19.473Z,2.50
2023-04-04T15:07:46.633Z,2.80
2023-04-04T15:10:13.284Z,2.40
2023-04-04T15:12:39.861Z,2.20
2023-04-04T15:15:07.004Z,2.77
2023-04-04T15:17:33.796Z,2.33
2023-04-04T15:20:00.507Z,2.70
2023-04-04T15:22:26.922Z,2.40
2023-04-04T15:24:55.320Z,2.53
2023-04-04T15:27:21.732Z,2.50
2023-04-04T15:29:48.332Z,2.13
2023-04-04T15:32:14.786Z,2.47
2023-04-04T15:34:41.379Z,2.47
2023-04-04T15:37:09.536Z,2.47
2023-04-04T15:39:46.002Z,2.40
2023-04-04T15:42:18.780Z,3.00
2023-04-04T15:44:45.187Z,2.70
2023-04-04T15:47:12.088Z,2.70
2023-04-04T15:49:38.582Z,2.87
2023-04-04T15:52:05.506Z,2.40
2023-04-04T15:54:32.300Z,2.23
2023-04-04T15:56:58.768Z,2.53
2023-04-04T15:59:25.396Z,2.73
2023-04-04T16:01:51.981Z,2.03
2023-04-04T16:04:18.575Z,2.20
2023-04-04T16:06:44.990Z,3.20
2023-04-04T16:09:11.461Z,2.30
2023-04-04T16:11:38.034Z,2.87
2023-04-04T16:14:05.929Z,3.27
2023-04-04T16:16:32.404Z,2.40
2023-04-04T16:18:58.873Z,2.70
2023-04-04T16:21:26.453Z,2.33
2023-04-04T16:23:53.075Z,2.23
2023-04-04T16:26:20.695Z,2.20
2023-04-04T16:28:47.775Z,2.20
2023-04-04T16:31:15.159Z,2.27
2023-04-04T16:33:42.055Z,2.70
2023-04-04T16:36:08.698Z,2.70
2023-04-04T16:38:35.195Z,2.63
2023-04-04T16:41:01.987Z,2.87
2023-04-04T16:43:28.557Z,2.10
2023-04-04T16:45:54.979Z,2.03
2023-04-04T16:48:21.679Z,2.70
2023-04-04T16:50:48.137Z,1.80
2023-04-04T16:53:14.611Z,2.00
2023-04-04T16:55:41.037Z,2.20
2023-04-04T16:58:07.508Z,2.20
2023-04-04T17:00:34.434Z,1.90
2023-04-04T17:03:01.009Z,1.70
2023-04-04T17:05:27.474Z,1.63
2023-04-04T17:07:53.920Z,2.00
2023-04-04T17:10:20.676Z,1.80
2023-04-04T17:12:47.179Z,2.00
2023-04-04T17:15:15.002Z,1.80
2023-04-04T17:17:43.090Z,1.70
2023-04-04T17:20:09.879Z,1.73
2023-04-04T17:22:37.429Z,1.90
2023-04-04T17:25:04.185Z,1.70
2023-04-04T17:27:31.126Z,2.10
2023-04-04T17:29:57.747Z,1.67
2023-04-04T17:32:24.327Z,1.70
2023-04-04T17:34:50.795Z,1.90
2023-04-04T17:37:17.384Z,1.80
2023-04-04T17:39:45.288Z,1.60
2023-04-04T17:42:12.281Z,1.90
2023-04-04T17:44:38.716Z,1.67
2023-04-04T17:47:05.293Z,2.00
2023-04-04T17:49:31.724Z,1.90
2023-04-04T17:51:58.333Z,1.60
2023-04-04T17:54:26.710Z,1.80
2023-04-04T17:56:53.215Z,1.83
2023-04-04T17:59:19.672Z,2.00
2023-04-04T18:01:46.729Z,1.73
2023-04-04T18:04:13.626Z,2.10
2023-04-04T18:06:41.777Z,2.77
2023-04-04T18:09:10.088Z,1.90
2023-04-04T18:11:36.940Z,1.90
2023-04-04T18:14:03.921Z,1.90
2023-04-04T18:16:38.391Z,2.50
2023-04-04T18:19:06.504Z,2.10
2023-04-04T18:21:32.961Z,2.23
2023-04-04T18:23:59.453Z,2.47
2023-04-04T18:26:25.987Z,2.23
2023-04-04T18:28:52.424Z,2.60
2023-04-04T18:31:19.016Z,2.90
2023-04-04T18:33:45.497Z,3.07
2023-04-04T18:36:12.228Z,2.50
2023-04-04T18:38:38.684Z,2.47
2023-04-04T18:41:05.759Z,2.53
2023-04-04T18:43:32.335Z,2.73
2023-04-04T18:45:59.776Z,3.47
2023-04-04T18:48:26.212Z,2.90
2023-04-04T18:50:52.712Z,3.17
2023-04-04T18:53:19.131Z,4.00
2023-04-04T18:55:46.528Z,4.30
2023-04-04T18:58:12.980Z,5.87
2023-04-04T19:00:39.720Z,5.40
2023-04-04T19:03:07.832Z,5.87
2023-04-04T19:05:37.097Z,6.83
2023-04-04T19:08:08.263Z,6.27
2023-04-04T19:10:35.714Z,7.10
2023-04-04T19:13:02.161Z,6.40
2023-04-04T19:15:28.630Z,6.43
2023-04-04T19:17:55.166Z,5.90
2023-04-04T19:20:21.883Z,6.27
2023-04-04T19:22:48.306Z,5.70
2023-04-04T19:25:14.942Z,5.87
2023-04-04T19:27:41.406Z,5.67
2023-04-04T19:30:44.738Z,6.13
2023-04-04T19:33:20.870Z,6.63
2023-04-04T19:36:01.716Z,7.43
2023-04-04T19:38:39.651Z,8.10
2023-04-04T19:41:25.485Z,7.67
2023-04-04T19:43:51.969Z,9.10
2023-04-04T19:46:26.558Z,9.97
2023-04-04T19:48:57.577Z,8.70
2023-04-04T19:51:24.025Z,10.60
2023-04-04T19:53:55.905Z,11.87
2023-04-04T19:56:26.067Z,11.43
2023-04-04T19:59:00.257Z,9.87
2023-04-04T20:01:29.038Z,9.37
2023-04-04T20:03:56.314Z,9.70
2023-04-04T20:06:27.647Z,8.77
2023-04-04T20:09:02.694Z,7.13
2023-04-04T20:11:33.738Z,7.40
2023-04-04T20:14:02.344Z,7.33
2023-04-04T20:16:30.273Z,7.00
2023-04-04T20:18:59.407Z,6.00
2023-04-04T20:21:32.266Z,5.60
2023-04-04T20:24:03.379Z,6.23
2023-04-04T20:26:38.774Z,5.77
2023-04-04T20:29:07.001Z,5.77
2023-04-04T20:31:51.674Z,4.53
2023-04-04T20:34:39.057Z,4.53
2023-04-04T20:37:09.620Z,4.47
2023-04-04T20:39:40.957Z,4.57
2023-04-04T20:42:17.800Z,3.80
2023-04-04T20:44:44.319Z,4.30
2023-04-04T20:47:40.845Z,3.97
2023-04-04T20:50:39.861Z,3.60
2023-04-04T20:53:07.105Z,3.77
2023-04-04T20:55:35.405Z,3.30
2023-04-04T20:58:12.109Z,4.27
2023-04-04T21:00:40.651Z,4.33
2023-04-04T21:03:29.013Z,4.60
2023-04-04T21:06:03.434Z,4.80
2023-04-04T21:08:37.423Z,5.57
2023-04-04T21:11:04.421Z,5.40
2023-04-04T21:13:34.410Z,4.70
2023-04-04T21:16:03.218Z,5.20
2023-04-04T21:18:31.667Z,4.83
2023-04-04T21:21:10.125Z,4.63
2023-04-04T21:23:44.148Z,4.70
2023-04-04T21:26:25.812Z,4.43
2023-04-04T21:28:52.681Z,4.77
2023-04-04T21:31:22.781Z,3.70
2023-04-04T21:33:53.328Z,3.90
2023-04-04T21:36:19.794Z,4.07
2023-04-04T21:38:46.236Z,3.50
2023-04-04T21:41:25.068Z,3.93
2023-04-04T21:43:52.530Z,3.73
2023-04-04T21:46:19.143Z,4.23
2023-04-04T21:48:45.779Z,4.37
2023-04-04T21:51:12.208Z,4.30
2023-04-04T21:53:38.693Z,4.23
2023-04-04T21:56:05.466Z,3.97
2023-04-04T21:58:31.929Z,3.53
2023-04-04T22:00:58.470Z,3.60
2023-04-04T22:03:24.949Z,3.80
2023-04-04T22:05:51.507Z,4.17
2023-04-04T22:08:18.149Z,3.40
2023-04-04T22:10:50.005Z,3.90
2023-04-04T22:13:18.581Z,3.30
2023-04-04T22:15:47.064Z,3.33
2023-04-04T22:18:17.709Z,3.20
2023-04-04T22:20:46.143Z,3.20
2023-04-04T22:23:15.474Z,3.00
2023-04-04T22:25:42.281Z,3.43
2023-04-04T22:28:09.396Z,4.30
2023-04-04T22:30:42.412Z,4.73
2023-04-04T22:33:09.356Z,3.57
2023-04-04T22:35:37.453Z,3.80
2023-04-04T22:38:04.525Z,4.07
2023-04-04T22:40:32.275Z,4.30
2023-04-04T22:42:59.676Z,4.27
2023-04-04T22:45:27.033Z,4.00
2023-04-04T22:47:54.944Z,5.30
2023-04-04T22:50:26.587Z,3.97
2023-04-04T22:52:54.783Z,4.10
2023-04-04T22:55:24.103Z,4.07
2023-04-04T22:57:51.020Z,4.00
2023-04-04T23:00:17.878Z,3.83
2023-04-04T23:02:46.152Z,3.70
2023-04-04T23:05:15.032Z,5.23
2023-04-04T23:07:41.998Z,4.80
2023-04-04T23:10:11.127Z,4.90
2023-04-04T23:12:38.693Z,4.63
2023-04-04T23:15:06.792Z,3.67
2023-04-04T23:17:34.110Z,3.97
2023-04-04T23:20:01.707Z,3.93
2023-04-04T23:22:29.401Z,4.10
2023-04-04T23:24:55.828Z,4.53
2023-04-04T23:27:22.288Z,4.43
2023-04-04T23:29:50.487Z,4.73
2023-04-04T23:32:17.062Z,4.73
2023-04-04T23:34:43.490Z,3.60
2023-04-04T23:37:10.078Z,4.60
2023-04-04T23:39:36.577Z,4.30
2023-04-04T23:42:04.493Z,4.63
2023-04-04T23:44:31.090Z,4.37
2023-04-04T23:46:57.799Z,4.53
2023-04-04T23:49:24.260Z,3.53
2023-04-04T23:51:50.918Z,3.97
2023-04-04T23:54:17.325Z,3.67
2023-04-04T23:56:43.900Z,4.13
2023-04-04T23:59:10.313Z,3.53
